sensor_id;sensor_type;location;lat;lon;timestamp;P1;durP1;ratioP1;P2;durP2;ratioP2
25758;SDS011;13604;52.496;13.456;2022-09-16T00:00:55;1.92;;;1.20;;
25758;SDS011;13604;52.496;13.456;2022-09-16T00:03:21;4.28;;;1.40;;
25758;SDS011;13604;52.496;13.456;2022-09-16T00:05:47;5.53;;;1.08;;
25758;SDS011;13604;52.496;13.456;2022-09-16T00:08:14;6.47;;;1.50;;
25758;SDS011;13604;52.496;13.456;2022-09-16T00:10:40;5.05;;;1.42;;
25758;SDS011;13604;52.496;13.456;2022-09-16T00:13:07;4.43;;;1.40;;
25758;SDS011;13604;52.496;13.456;2022-09-16T00:15:32;2.90;;;1.20;;
25758;SDS011;13604;52.496;13.456;2022-09-16T00:17:58;4.72;;;1.20;;
25758;SDS011;13604;52.496;13.456;2022-09-16T00:20:23;8.98;;;2.03;;
25758;SDS011;13604;52.496;13.456;2022-09-16T00:22:49;7.20;;;1.30;;
25758;SDS011;13604;52.496;13.456;2022-09-16T00:25:14;4.55;;;1.45;;
25758;SDS011;13604;52.496;13.456;2022-09-16T00:27:39;2.85;;;1.13;;
25758;SDS011;13604;52.496;13.456;2022-09-16T00:30:05;3.83;;;1.15;;
25758;SDS011;13604;52.496;13.456;2022-09-16T00:32:31;4.22;;;1.20;;
25758;SDS011;13604;52.496;13.456;2022-09-16T00:34:56;4.55;;;1.55;;
25758;SDS011;13604;52.496;13.456;2022-09-16T00:37:21;8.60;;;1.80;;
25758;SDS011;13604;52.496;13.456;2022-09-16T00:39:47;4.95;;;1.10;;
25758;SDS011;13604;52.496;13.456;2022-09-16T00:42:13;7.68;;;1.50;;
25758;SDS011;13604;52.496;13.456;2022-09-16T00:47:32;3.50;;;1.30;;
25758;SDS011;13604;52.496;13.456;2022-09-16T00:50:04;4.68;;;1.27;;
25758;SDS011;13604;52.496;13.456;2022-09-16T00:52:34;3.38;;;1.40;;
25758;SDS011;13604;52.496;13.456;2022-09-16T00:55:00;4.53;;;1.20;;
25758;SDS011;13604;52.496;13.456;2022-09-16T00:57:27;1.50;;;1.02;;
25758;SDS011;13604;52.496;13.456;2022-09-16T00:59:53;2.95;;;1.65;;
25758;SDS011;13604;52.496;13.456;2022-09-16T01:02:20;4.88;;;1.40;;
25758;SDS011;13604;52.496;13.456;2022-09-16T01:04:51;2.45;;;1.27;;
25758;SDS011;13604;52.496;13.456;2022-09-16T01:07:25;2.95;;;1.30;;
25758;SDS011;13604;52.496;13.456;2022-09-16T01:09:55;5.00;;;1.45;;
25758;SDS011;13604;52.496;13.456;2022-09-16T01:12:20;4.63;;;1.40;;
25758;SDS011;13604;52.496;13.456;2022-09-16T01:14:46;3.53;;;0.85;;
25758;SDS011;13604;52.496;13.456;2022-09-16T01:22:58;6.53;;;1.52;;
25758;SDS011;13604;52.496;13.456;2022-09-16T01:25:48;5.65;;;1.40;;
25758;SDS011;13604;52.496;13.456;2022-09-16T01:31:14;5.10;;;1.50;;
25758;SDS011;13604;52.496;13.456;2022-09-16T01:33:58;4.40;;;1.55;;
25758;SDS011;13604;52.496;13.456;2022-09-16T01:44:56;6.32;;;1.60;;
25758;SDS011;13604;52.496;13.456;2022-09-16T01:47:27;5.80;;;1.55;;
25758;SDS011;13604;52.496;13.456;2022-09-16T01:50:02;5.80;;;1.60;;
25758;SDS011;13604;52.496;13.456;2022-09-16T01:52:51;4.50;;;2.25;;
25758;SDS011;13604;52.496;13.456;2022-09-16T01:55:25;3.35;;;1.30;;
25758;SDS011;13604;52.496;13.456;2022-09-16T01:58:16;5.60;;;1.90;;
25758;SDS011;13604;52.496;13.456;2022-09-16T02:00:59;5.60;;;1.63;;
25758;SDS011;13604;52.496;13.456;2022-09-16T02:03:32;8.30;;;1.58;;
25758;SDS011;13604;52.496;13.456;2022-09-16T02:06:09;4.25;;;1.75;;
25758;SDS011;13604;52.496;13.456;2022-09-16T02:08:45;10.23;;;1.88;;
25758;SDS011;13604;52.496;13.456;2022-09-16T02:11:21;5.30;;;1.90;;
25758;SDS011;13604;52.496;13.456;2022-09-16T02:13:52;6.38;;;1.98;;
25758;SDS011;13604;52.496;13.456;2022-09-16T02:16:23;6.30;;;1.70;;
25758;SDS011;13604;52.496;13.456;2022-09-16T02:18:56;11.40;;;2.17;;
25758;SDS011;13604;52.496;13.456;2022-09-16T02:21:28;12.48;;;2.22;;
25758;SDS011;13604;52.496;13.456;2022-09-16T02:23:57;6.15;;;2.35;;
25758;SDS011;13604;52.496;13.456;2022-09-16T02:26:32;6.32;;;2.38;;
25758;SDS011;13604;52.496;13.456;2022-09-16T02:29:01;12.35;;;2.30;;
25758;SDS011;13604;52.496;13.456;2022-09-16T02:31:34;9.20;;;2.63;;
25758;SDS011;13604;52.496;13.456;2022-09-16T02:34:11;5.35;;;2.17;;
25758;SDS011;13604;52.496;13.456;2022-09-16T02:36:40;5.22;;;2.15;;
25758;SDS011;13604;52.496;13.456;2022-09-16T02:39:10;6.20;;;1.85;;
25758;SDS011;13604;52.496;13.456;2022-09-16T02:41:40;7.53;;;2.33;;
25758;SDS011;13604;52.496;13.456;2022-09-16T02:44:07;6.90;;;2.47;;
25758;SDS011;13604;52.496;13.456;2022-09-16T02:46:47;23.58;;;2.78;;
25758;SDS011;13604;52.496;13.456;2022-09-16T02:55:30;5.95;;;2.60;;
25758;SDS011;13604;52.496;13.456;2022-09-16T02:58:03;10.02;;;2.28;;
25758;SDS011;13604;52.496;13.456;2022-09-16T03:00:31;5.05;;;2.30;;
25758;SDS011;13604;52.496;13.456;2022-09-16T03:03:00;7.80;;;2.15;;
25758;SDS011;13604;52.496;13.456;2022-09-16T03:05:27;6.20;;;2.35;;
25758;SDS011;13604;52.496;13.456;2022-09-16T03:07:53;7.53;;;2.30;;
25758;SDS011;13604;52.496;13.456;2022-09-16T03:10:19;5.30;;;2.75;;
25758;SDS011;13604;52.496;13.456;2022-09-16T03:15:35;8.00;;;2.75;;
25758;SDS011;13604;52.496;13.456;2022-09-16T03:24:08;9.00;;;2.53;;
25758;SDS011;13604;52.496;13.456;2022-09-16T03:26:47;12.00;;;2.75;;
25758;SDS011;13604;52.496;13.456;2022-09-16T03:29:25;12.00;;;2.97;;
25758;SDS011;13604;52.496;13.456;2022-09-16T03:32:06;6.43;;;2.85;;
25758;SDS011;13604;52.496;13.456;2022-09-16T03:34:39;11.05;;;2.83;;
25758;SDS011;13604;52.496;13.456;2022-09-16T03:37:09;9.23;;;2.60;;
25758;SDS011;13604;52.496;13.456;2022-09-16T03:39:39;8.57;;;2.95;;
25758;SDS011;13604;52.496;13.456;2022-09-16T03:42:06;7.22;;;2.78;;
25758;SDS011;13604;52.496;13.456;2022-09-16T03:44:35;5.78;;;2.60;;
25758;SDS011;13604;52.496;13.456;2022-09-16T03:47:03;11.95;;;3.00;;
25758;SDS011;13604;52.496;13.456;2022-09-16T03:49:29;6.43;;;2.78;;
25758;SDS011;13604;52.496;13.456;2022-09-16T03:51:55;7.15;;;3.35;;
25758;SDS011;13604;52.496;13.456;2022-09-16T03:54:21;6.47;;;2.60;;
25758;SDS011;13604;52.496;13.456;2022-09-16T03:56:46;10.23;;;3.00;;
25758;SDS011;13604;52.496;13.456;2022-09-16T03:59:12;7.97;;;3.20;;
25758;SDS011;13604;52.496;13.456;2022-09-16T04:01:37;13.20;;;3.15;;
25758;SDS011;13604;52.496;13.456;2022-09-16T04:04:02;9.48;;;3.30;;
25758;SDS011;13604;52.496;13.456;2022-09-16T04:06:28;13.15;;;4.00;;
25758;SDS011;13604;52.496;13.456;2022-09-16T04:08:53;12.40;;;3.60;;
25758;SDS011;13604;52.496;13.456;2022-09-16T04:11:18;9.30;;;3.70;;
25758;SDS011;13604;52.496;13.456;2022-09-16T04:13:44;10.93;;;3.90;;
25758;SDS011;13604;52.496;13.456;2022-09-16T04:16:09;9.70;;;3.50;;
25758;SDS011;13604;52.496;13.456;2022-09-16T04:18:34;12.35;;;3.45;;
25758;SDS011;13604;52.496;13.456;2022-09-16T04:21:00;6.80;;;3.38;;
25758;SDS011;13604;52.496;13.456;2022-09-16T04:23:27;6.00;;;3.40;;
25758;SDS011;13604;52.496;13.456;2022-09-16T04:25:58;6.10;;;3.47;;
25758;SDS011;13604;52.496;13.456;2022-09-16T04:28:25;10.13;;;3.72;;
25758;SDS011;13604;52.496;13.456;2022-09-16T04:30:51;6.57;;;3.42;;
25758;SDS011;13604;52.496;13.456;2022-09-16T04:33:16;11.27;;;3.47;;
25758;SDS011;13604;52.496;13.456;2022-09-16T04:35:42;9.52;;;4.20;;
25758;SDS011;13604;52.496;13.456;2022-09-16T04:38:07;10.85;;;3.85;;
25758;SDS011;13604;52.496;13.456;2022-09-16T04:40:33;5.82;;;3.75;;
25758;SDS011;13604;52.496;13.456;2022-09-16T04:42:58;18.50;;;4.35;;
25758;SDS011;13604;52.496;13.456;2022-09-16T04:45:23;7.88;;;4.07;;
25758;SDS011;13604;52.496;13.456;2022-09-16T04:47:54;9.38;;;4.07;;
25758;SDS011;13604;52.496;13.456;2022-09-16T04:50:20;8.73;;;3.67;;
25758;SDS011;13604;52.496;13.456;2022-09-16T04:52:46;13.00;;;3.75;;
25758;SDS011;13604;52.496;13.456;2022-09-16T04:55:11;12.30;;;3.90;;
25758;SDS011;13604;52.496;13.456;2022-09-16T04:57:36;10.40;;;3.25;;
25758;SDS011;13604;52.496;13.456;2022-09-16T05:00:02;10.93;;;3.80;;
25758;SDS011;13604;52.496;13.456;2022-09-16T05:02:28;6.97;;;3.17;;
25758;SDS011;13604;52.496;13.456;2022-09-16T05:04:54;8.48;;;3.17;;
25758;SDS011;13604;52.496;13.456;2022-09-16T05:07:19;12.30;;;3.60;;
25758;SDS011;13604;52.496;13.456;2022-09-16T05:09:44;6.10;;;2.92;;
25758;SDS011;13604;52.496;13.456;2022-09-16T05:12:10;13.05;;;3.42;;
25758;SDS011;13604;52.496;13.456;2022-09-16T05:14:35;10.23;;;2.80;;
25758;SDS011;13604;52.496;13.456;2022-09-16T05:17:00;10.88;;;2.90;;
25758;SDS011;13604;52.496;13.456;2022-09-16T05:19:26;5.47;;;2.95;;
25758;SDS011;13604;52.496;13.456;2022-09-16T05:21:51;6.82;;;2.65;;
25758;SDS011;13604;52.496;13.456;2022-09-16T05:24:16;12.85;;;2.67;;
25758;SDS011;13604;52.496;13.456;2022-09-16T05:26:42;7.70;;;2.65;;
25758;SDS011;13604;52.496;13.456;2022-09-16T05:29:09;6.18;;;2.45;;
25758;SDS011;13604;52.496;13.456;2022-09-16T05:31:37;6.05;;;2.55;;
25758;SDS011;13604;52.496;13.456;2022-09-16T05:34:06;7.47;;;2.40;;
25758;SDS011;13604;52.496;13.456;2022-09-16T05:36:36;10.52;;;2.40;;
25758;SDS011;13604;52.496;13.456;2022-09-16T05:39:02;10.52;;;2.95;;
25758;SDS011;13604;52.496;13.456;2022-09-16T05:41:28;8.93;;;3.15;;
25758;SDS011;13604;52.496;13.456;2022-09-16T05:43:56;6.65;;;2.35;;
25758;SDS011;13604;52.496;13.456;2022-09-16T05:46:23;9.07;;;2.40;;
25758;SDS011;13604;52.496;13.456;2022-09-16T05:48:49;11.70;;;2.40;;
25758;SDS011;13604;52.496;13.456;2022-09-16T05:51:15;8.23;;;2.63;;
25758;SDS011;13604;52.496;13.456;2022-09-16T05:53:42;7.25;;;3.00;;
25758;SDS011;13604;52.496;13.456;2022-09-16T05:56:12;11.23;;;2.30;;
25758;SDS011;13604;52.496;13.456;2022-09-16T05:58:39;10.20;;;2.25;;
25758;SDS011;13604;52.496;13.456;2022-09-16T06:01:09;7.60;;;2.20;;
25758;SDS011;13604;52.496;13.456;2022-09-16T06:03:38;7.43;;;2.30;;
25758;SDS011;13604;52.496;13.456;2022-09-16T06:06:05;8.48;;;2.80;;
25758;SDS011;13604;52.496;13.456;2022-09-16T06:08:40;5.07;;;2.10;;
25758;SDS011;13604;52.496;13.456;2022-09-16T06:11:07;5.63;;;2.50;;
25758;SDS011;13604;52.496;13.456;2022-09-16T06:13:34;4.55;;;2.22;;
25758;SDS011;13604;52.496;13.456;2022-09-16T06:16:00;8.27;;;2.42;;
25758;SDS011;13604;52.496;13.456;2022-09-16T06:18:27;9.18;;;2.40;;
25758;SDS011;13604;52.496;13.456;2022-09-16T06:20:54;5.18;;;2.40;;
25758;SDS011;13604;52.496;13.456;2022-09-16T06:23:20;7.78;;;1.92;;
25758;SDS011;13604;52.496;13.456;2022-09-16T06:25:46;11.80;;;1.98;;
25758;SDS011;13604;52.496;13.456;2022-09-16T06:28:12;6.32;;;2.15;;
25758;SDS011;13604;52.496;13.456;2022-09-16T06:30:39;4.97;;;1.58;;
25758;SDS011;13604;52.496;13.456;2022-09-16T06:33:04;8.55;;;2.50;;
25758;SDS011;13604;52.496;13.456;2022-09-16T06:35:30;5.80;;;2.08;;
25758;SDS011;13604;52.496;13.456;2022-09-16T06:37:55;5.30;;;1.65;;
25758;SDS011;13604;52.496;13.456;2022-09-16T06:40:21;6.95;;;2.42;;
25758;SDS011;13604;52.496;13.456;2022-09-16T06:42:46;9.93;;;3.08;;
25758;SDS011;13604;52.496;13.456;2022-09-16T06:45:12;8.70;;;2.20;;
25758;SDS011;13604;52.496;13.456;2022-09-16T06:47:37;4.70;;;2.30;;
25758;SDS011;13604;52.496;13.456;2022-09-16T06:50:03;5.70;;;2.10;;
25758;SDS011;13604;52.496;13.456;2022-09-16T06:52:29;7.88;;;2.45;;
25758;SDS011;13604;52.496;13.456;2022-09-16T06:54:54;9.45;;;2.47;;
25758;SDS011;13604;52.496;13.456;2022-09-16T06:57:20;7.05;;;2.03;;
25758;SDS011;13604;52.496;13.456;2022-09-16T06:59:47;6.82;;;2.28;;
25758;SDS011;13604;52.496;13.456;2022-09-16T07:02:13;7.80;;;2.10;;
25758;SDS011;13604;52.496;13.456;2022-09-16T07:04:39;8.90;;;1.98;;
25758;SDS011;13604;52.496;13.456;2022-09-16T07:07:04;6.88;;;2.25;;
25758;SDS011;13604;52.496;13.456;2022-09-16T07:09:30;6.03;;;2.17;;
25758;SDS011;13604;52.496;13.456;2022-09-16T07:11:56;7.88;;;2.30;;
25758;SDS011;13604;52.496;13.456;2022-09-16T07:14:23;5.03;;;2.42;;
25758;SDS011;13604;52.496;13.456;2022-09-16T07:16:48;4.60;;;2.05;;
25758;SDS011;13604;52.496;13.456;2022-09-16T07:19:14;7.55;;;2.03;;
25758;SDS011;13604;52.496;13.456;2022-09-16T07:21:39;13.32;;;2.58;;
25758;SDS011;13604;52.496;13.456;2022-09-16T07:24:06;7.38;;;2.08;;
25758;SDS011;13604;52.496;13.456;2022-09-16T07:26:33;10.32;;;2.00;;
25758;SDS011;13604;52.496;13.456;2022-09-16T07:29:02;9.10;;;2.30;;
25758;SDS011;13604;52.496;13.456;2022-09-16T07:31:32;5.63;;;2.20;;
25758;SDS011;13604;52.496;13.456;2022-09-16T07:33:59;5.32;;;2.08;;
25758;SDS011;13604;52.496;13.456;2022-09-16T07:36:26;7.80;;;2.42;;
25758;SDS011;13604;52.496;13.456;2022-09-16T07:38:54;12.35;;;2.20;;
25758;SDS011;13604;52.496;13.456;2022-09-16T07:41:24;6.22;;;1.85;;
25758;SDS011;13604;52.496;13.456;2022-09-16T07:43:54;11.50;;;2.08;;
25758;SDS011;13604;52.496;13.456;2022-09-16T07:46:23;5.78;;;1.85;;
25758;SDS011;13604;52.496;13.456;2022-09-16T07:48:49;8.02;;;1.67;;
25758;SDS011;13604;52.496;13.456;2022-09-16T07:51:16;4.65;;;1.92;;
25758;SDS011;13604;52.496;13.456;2022-09-16T07:53:44;7.05;;;1.92;;
25758;SDS011;13604;52.496;13.456;2022-09-16T07:56:17;7.70;;;2.17;;
25758;SDS011;13604;52.496;13.456;2022-09-16T07:58:45;6.97;;;1.65;;
25758;SDS011;13604;52.496;13.456;2022-09-16T08:01:11;4.95;;;1.35;;
25758;SDS011;13604;52.496;13.456;2022-09-16T08:03:38;3.47;;;1.20;;
25758;SDS011;13604;52.496;13.456;2022-09-16T08:06:05;7.07;;;1.52;;
25758;SDS011;13604;52.496;13.456;2022-09-16T08:08:36;9.05;;;1.65;;
25758;SDS011;13604;52.496;13.456;2022-09-16T08:11:02;3.35;;;1.20;;
25758;SDS011;13604;52.496;13.456;2022-09-16T08:13:28;3.42;;;1.20;;
25758;SDS011;13604;52.496;13.456;2022-09-16T08:15:55;3.70;;;1.33;;
25758;SDS011;13604;52.496;13.456;2022-09-16T08:18:24;12.70;;;1.75;;
25758;SDS011;13604;52.496;13.456;2022-09-16T08:20:50;5.43;;;1.40;;
25758;SDS011;13604;52.496;13.456;2022-09-16T08:23:15;5.07;;;1.13;;
25758;SDS011;13604;52.496;13.456;2022-09-16T08:25:41;6.28;;;1.45;;
25758;SDS011;13604;52.496;13.456;2022-09-16T08:28:11;5.55;;;1.67;;
25758;SDS011;13604;52.496;13.456;2022-09-16T08:30:37;6.57;;;1.15;;
25758;SDS011;13604;52.496;13.456;2022-09-16T08:33:02;5.95;;;1.38;;
25758;SDS011;13604;52.496;13.456;2022-09-16T08:35:27;4.95;;;1.20;;
25758;SDS011;13604;52.496;13.456;2022-09-16T08:37:53;7.00;;;1.38;;
25758;SDS011;13604;52.496;13.456;2022-09-16T08:40:22;5.90;;;1.10;;
25758;SDS011;13604;52.496;13.456;2022-09-16T08:42:53;3.92;;;1.80;;
25758;SDS011;13604;52.496;13.456;2022-09-16T08:45:34;9.07;;;1.30;;
25758;SDS011;13604;52.496;13.456;2022-09-16T08:48:20;5.80;;;1.63;;
25758;SDS011;13604;52.496;13.456;2022-09-16T08:50:59;5.20;;;1.52;;
25758;SDS011;13604;52.496;13.456;2022-09-16T08:53:46;7.78;;;1.73;;
25758;SDS011;13604;52.496;13.456;2022-09-16T08:56:19;10.68;;;1.70;;
25758;SDS011;13604;52.496;13.456;2022-09-16T08:58:50;4.43;;;1.30;;
25758;SDS011;13604;52.496;13.456;2022-09-16T09:04:08;7.57;;;1.30;;
25758;SDS011;13604;52.496;13.456;2022-09-16T09:09:22;11.45;;;1.83;;
25758;SDS011;13604;52.496;13.456;2022-09-16T09:20:38;4.35;;;1.10;;
25758;SDS011;13604;52.496;13.456;2022-09-16T09:26:47;4.47;;;1.10;;
25758;SDS011;13604;52.496;13.456;2022-09-16T09:29:29;10.88;;;1.90;;
25758;SDS011;13604;52.496;13.456;2022-09-16T09:40:46;5.78;;;1.05;;
25758;SDS011;13604;52.496;13.456;2022-09-16T09:43:36;3.30;;;1.23;;
25758;SDS011;13604;52.496;13.456;2022-09-16T09:46:09;6.10;;;1.35;;
25758;SDS011;13604;52.496;13.456;2022-09-16T09:49:03;4.85;;;1.48;;
25758;SDS011;13604;52.496;13.456;2022-09-16T09:51:43;10.07;;;2.03;;
25758;SDS011;13604;52.496;13.456;2022-09-16T09:56:53;7.65;;;1.70;;
25758;SDS011;13604;52.496;13.456;2022-09-16T09:59:24;3.40;;;1.42;;
25758;SDS011;13604;52.496;13.456;2022-09-16T10:01:56;5.22;;;1.25;;
25758;SDS011;13604;52.496;13.456;2022-09-16T10:04:22;9.27;;;1.27;;
25758;SDS011;13604;52.496;13.456;2022-09-16T10:06:48;8.88;;;1.50;;
25758;SDS011;13604;52.496;13.456;2022-09-16T10:09:15;4.30;;;1.13;;
25758;SDS011;13604;52.496;13.456;2022-09-16T10:11:48;9.63;;;1.45;;
25758;SDS011;13604;52.496;13.456;2022-09-16T10:14:29;5.85;;;1.10;;
25758;SDS011;13604;52.496;13.456;2022-09-16T10:17:02;8.93;;;1.58;;
25758;SDS011;13604;52.496;13.456;2022-09-16T10:19:38;5.60;;;1.15;;
25758;SDS011;13604;52.496;13.456;2022-09-16T10:22:51;6.40;;;1.15;;
25758;SDS011;13604;52.496;13.456;2022-09-16T10:25:17;4.57;;;1.48;;
25758;SDS011;13604;52.496;13.456;2022-09-16T10:27:55;6.45;;;1.30;;
25758;SDS011;13604;52.496;13.456;2022-09-16T10:30:24;6.70;;;1.40;;
25758;SDS011;13604;52.496;13.456;2022-09-16T10:33:01;7.13;;;1.48;;
25758;SDS011;13604;52.496;13.456;2022-09-16T10:35:33;4.30;;;1.08;;
25758;SDS011;13604;52.496;13.456;2022-09-16T10:38:04;8.55;;;1.52;;
25758;SDS011;13604;52.496;13.456;2022-09-16T10:40:53;9.32;;;1.58;;
25758;SDS011;13604;52.496;13.456;2022-09-16T10:43:22;5.72;;;1.08;;
25758;SDS011;13604;52.496;13.456;2022-09-16T10:45:52;7.13;;;1.52;;
25758;SDS011;13604;52.496;13.456;2022-09-16T10:48:19;16.08;;;1.50;;
25758;SDS011;13604;52.496;13.456;2022-09-16T10:50:51;4.53;;;1.17;;
25758;SDS011;13604;52.496;13.456;2022-09-16T10:53:28;4.53;;;1.30;;
25758;SDS011;13604;52.496;13.456;2022-09-16T10:56:01;6.07;;;1.30;;
25758;SDS011;13604;52.496;13.456;2022-09-16T10:58:28;7.60;;;1.15;;
25758;SDS011;13604;52.496;13.456;2022-09-16T11:00:59;5.03;;;1.35;;
25758;SDS011;13604;52.496;13.456;2022-09-16T11:03:38;5.95;;;1.45;;
25758;SDS011;13604;52.496;13.456;2022-09-16T11:06:21;4.65;;;1.40;;
25758;SDS011;13604;52.496;13.456;2022-09-16T11:16:53;3.80;;;1.30;;
25758;SDS011;13604;52.496;13.456;2022-09-16T11:22:19;5.47;;;1.40;;
25758;SDS011;13604;52.496;13.456;2022-09-16T11:25:11;10.75;;;1.60;;
25758;SDS011;13604;52.496;13.456;2022-09-16T11:28:07;7.75;;;1.42;;
25758;SDS011;13604;52.496;13.456;2022-09-16T11:30:53;9.35;;;1.38;;
25758;SDS011;13604;52.496;13.456;2022-09-16T11:33:30;5.68;;;1.35;;
25758;SDS011;13604;52.496;13.456;2022-09-16T11:36:03;13.57;;;1.42;;
25758;SDS011;13604;52.496;13.456;2022-09-16T11:44:29;4.40;;;1.40;;
25758;SDS011;13604;52.496;13.456;2022-09-16T11:50:02;4.70;;;1.10;;
25758;SDS011;13604;52.496;13.456;2022-09-16T11:52:47;7.03;;;1.70;;
25758;SDS011;13604;52.496;13.456;2022-09-16T11:55:35;4.15;;;1.00;;
25758;SDS011;13604;52.496;13.456;2022-09-16T11:58:17;3.92;;;0.93;;
25758;SDS011;13604;52.496;13.456;2022-09-16T12:00:44;5.78;;;1.20;;
25758;SDS011;13604;52.496;13.456;2022-09-16T12:05:53;3.50;;;1.25;;
25758;SDS011;13604;52.496;13.456;2022-09-16T12:08:34;7.00;;;1.20;;
25758;SDS011;13604;52.496;13.456;2022-09-16T12:11:30;7.97;;;1.63;;
25758;SDS011;13604;52.496;13.456;2022-09-16T12:14:11;9.20;;;1.10;;
25758;SDS011;13604;52.496;13.456;2022-09-16T12:16:43;5.35;;;1.52;;
25758;SDS011;13604;52.496;13.456;2022-09-16T12:19:33;6.95;;;1.08;;
25758;SDS011;13604;52.496;13.456;2022-09-16T12:22:10;7.47;;;1.20;;
25758;SDS011;13604;52.496;13.456;2022-09-16T12:27:27;2.80;;;1.27;;
25758;SDS011;13604;52.496;13.456;2022-09-16T12:30:12;6.22;;;1.17;;
25758;SDS011;13604;52.496;13.456;2022-09-16T12:35:30;7.22;;;1.25;;
25758;SDS011;13604;52.496;13.456;2022-09-16T12:37:58;4.90;;;1.10;;
25758;SDS011;13604;52.496;13.456;2022-09-16T12:43:03;4.25;;;0.70;;
25758;SDS011;13604;52.496;13.456;2022-09-16T12:51:51;5.00;;;1.52;;
25758;SDS011;13604;52.496;13.456;2022-09-16T12:54:50;4.47;;;1.02;;
25758;SDS011;13604;52.496;13.456;2022-09-16T12:57:54;6.15;;;1.50;;
25758;SDS011;13604;52.496;13.456;2022-09-16T13:00:40;5.13;;;0.95;;
25758;SDS011;13604;52.496;13.456;2022-09-16T13:03:18;7.78;;;1.42;;
25758;SDS011;13604;52.496;13.456;2022-09-16T13:05:47;4.13;;;1.30;;
25758;SDS011;13604;52.496;13.456;2022-09-16T13:08:25;6.10;;;0.95;;
25758;SDS011;13604;52.496;13.456;2022-09-16T13:10:54;5.57;;;1.35;;
25758;SDS011;13604;52.496;13.456;2022-09-16T13:13:30;2.20;;;0.82;;
25758;SDS011;13604;52.496;13.456;2022-09-16T13:15:59;7.32;;;1.30;;
25758;SDS011;13604;52.496;13.456;2022-09-16T13:18:40;7.35;;;1.13;;
25758;SDS011;13604;52.496;13.456;2022-09-16T13:21:12;4.43;;;1.25;;
25758;SDS011;13604;52.496;13.456;2022-09-16T13:23:55;5.80;;;1.10;;
25758;SDS011;13604;52.496;13.456;2022-09-16T13:26:41;3.35;;;1.42;;
25758;SDS011;13604;52.496;13.456;2022-09-16T13:29:23;7.00;;;1.30;;
25758;SDS011;13604;52.496;13.456;2022-09-16T13:31:52;6.97;;;1.33;;
25758;SDS011;13604;52.496;13.456;2022-09-16T13:34:17;6.45;;;1.45;;
25758;SDS011;13604;52.496;13.456;2022-09-16T13:36:43;6.00;;;1.05;;
25758;SDS011;13604;52.496;13.456;2022-09-16T13:39:14;3.67;;;1.33;;
25758;SDS011;13604;52.496;13.456;2022-09-16T13:41:52;6.10;;;1.38;;
25758;SDS011;13604;52.496;13.456;2022-09-16T13:49:40;7.75;;;1.33;;
25758;SDS011;13604;52.496;13.456;2022-09-16T13:52:11;6.78;;;1.27;;
25758;SDS011;13604;52.496;13.456;2022-09-16T13:54:41;2.63;;;1.00;;
25758;SDS011;13604;52.496;13.456;2022-09-16T13:57:15;6.55;;;1.13;;
25758;SDS011;13604;52.496;13.456;2022-09-16T13:59:53;2.35;;;0.90;;
25758;SDS011;13604;52.496;13.456;2022-09-16T14:02:55;6.93;;;1.08;;
25758;SDS011;13604;52.496;13.456;2022-09-16T14:05:41;5.38;;;1.20;;
25758;SDS011;13604;52.496;13.456;2022-09-16T14:08:38;3.20;;;0.98;;
25758;SDS011;13604;52.496;13.456;2022-09-16T14:11:18;3.88;;;1.20;;
25758;SDS011;13604;52.496;13.456;2022-09-16T14:13:47;3.38;;;1.23;;
25758;SDS011;13604;52.496;13.456;2022-09-16T14:16:42;4.55;;;1.23;;
25758;SDS011;13604;52.496;13.456;2022-09-16T14:19:20;4.82;;;1.17;;
25758;SDS011;13604;52.496;13.456;2022-09-16T14:22:00;6.68;;;1.20;;
25758;SDS011;13604;52.496;13.456;2022-09-16T14:24:35;3.50;;;1.20;;
25758;SDS011;13604;52.496;13.456;2022-09-16T14:27:02;3.72;;;1.02;;
25758;SDS011;13604;52.496;13.456;2022-09-16T14:29:28;4.30;;;1.13;;
25758;SDS011;13604;52.496;13.456;2022-09-16T14:31:54;7.03;;;1.27;;
25758;SDS011;13604;52.496;13.456;2022-09-16T14:34:31;11.43;;;1.42;;
25758;SDS011;13604;52.496;13.456;2022-09-16T14:37:00;3.72;;;0.93;;
25758;SDS011;13604;52.496;13.456;2022-09-16T14:39:26;5.13;;;1.15;;
25758;SDS011;13604;52.496;13.456;2022-09-16T14:41:54;4.53;;;1.13;;
25758;SDS011;13604;52.496;13.456;2022-09-16T14:44:31;3.20;;;1.30;;
25758;SDS011;13604;52.496;13.456;2022-09-16T14:47:03;4.00;;;1.20;;
25758;SDS011;13604;52.496;13.456;2022-09-16T14:49:39;5.85;;;1.20;;
25758;SDS011;13604;52.496;13.456;2022-09-16T14:52:14;4.32;;;1.35;;
25758;SDS011;13604;52.496;13.456;2022-09-16T14:54:44;5.32;;;1.60;;
25758;SDS011;13604;52.496;13.456;2022-09-16T14:57:13;10.13;;;1.50;;
25758;SDS011;13604;52.496;13.456;2022-09-16T14:59:41;7.03;;;1.10;;
25758;SDS011;13604;52.496;13.456;2022-09-16T15:02:12;3.63;;;1.15;;
25758;SDS011;13604;52.496;13.456;2022-09-16T15:04:45;4.10;;;0.98;;
25758;SDS011;13604;52.496;13.456;2022-09-16T15:07:22;2.55;;;1.02;;
25758;SDS011;13604;52.496;13.456;2022-09-16T15:12:54;3.45;;;1.10;;
25758;SDS011;13604;52.496;13.456;2022-09-16T15:15:29;5.88;;;1.63;;
25758;SDS011;13604;52.496;13.456;2022-09-16T15:17:58;4.80;;;1.10;;
25758;SDS011;13604;52.496;13.456;2022-09-16T15:20:27;5.00;;;1.20;;
25758;SDS011;13604;52.496;13.456;2022-09-16T15:22:55;3.28;;;1.17;;
25758;SDS011;13604;52.496;13.456;2022-09-16T15:25:24;4.88;;;1.65;;
25758;SDS011;13604;52.496;13.456;2022-09-16T15:28:02;8.57;;;1.35;;
25758;SDS011;13604;52.496;13.456;2022-09-16T15:30:29;4.15;;;1.10;;
25758;SDS011;13604;52.496;13.456;2022-09-16T15:32:54;6.07;;;1.40;;
25758;SDS011;13604;52.496;13.456;2022-09-16T15:35:23;7.13;;;1.10;;
25758;SDS011;13604;52.496;13.456;2022-09-16T15:37:50;7.28;;;1.70;;
25758;SDS011;13604;52.496;13.456;2022-09-16T15:40:19;3.92;;;1.27;;
25758;SDS011;13604;52.496;13.456;2022-09-16T15:42:44;6.03;;;1.42;;
25758;SDS011;13604;52.496;13.456;2022-09-16T15:45:15;7.30;;;1.17;;
25758;SDS011;13604;52.496;13.456;2022-09-16T15:47:50;5.65;;;1.60;;
25758;SDS011;13604;52.496;13.456;2022-09-16T15:50:20;9.02;;;1.30;;
25758;SDS011;13604;52.496;13.456;2022-09-16T15:58:20;4.68;;;1.15;;
25758;SDS011;13604;52.496;13.456;2022-09-16T16:01:13;5.43;;;1.23;;
25758;SDS011;13604;52.496;13.456;2022-09-16T16:06:08;6.50;;;1.90;;
25758;SDS011;13604;52.496;13.456;2022-09-16T16:08:44;4.93;;;1.58;;
25758;SDS011;13604;52.496;13.456;2022-09-16T16:11:15;9.32;;;1.55;;
25758;SDS011;13604;52.496;13.456;2022-09-16T16:13:42;10.20;;;2.25;;
25758;SDS011;13604;52.496;13.456;2022-09-16T16:16:08;6.95;;;2.20;;
25758;SDS011;13604;52.496;13.456;2022-09-16T16:18:34;7.65;;;2.03;;
25758;SDS011;13604;52.496;13.456;2022-09-16T16:21:04;6.20;;;2.22;;
25758;SDS011;13604;52.496;13.456;2022-09-16T16:23:32;8.77;;;1.77;;
25758;SDS011;13604;52.496;13.456;2022-09-16T16:25:58;4.82;;;1.48;;
25758;SDS011;13604;52.496;13.456;2022-09-16T16:28:23;5.22;;;1.30;;
25758;SDS011;13604;52.496;13.456;2022-09-16T16:30:49;10.98;;;2.60;;
25758;SDS011;13604;52.496;13.456;2022-09-16T16:33:14;6.43;;;1.60;;
25758;SDS011;13604;52.496;13.456;2022-09-16T16:35:40;8.20;;;2.40;;
25758;SDS011;13604;52.496;13.456;2022-09-16T16:38:05;5.15;;;1.25;;
25758;SDS011;13604;52.496;13.456;2022-09-16T16:40:30;6.47;;;1.60;;
25758;SDS011;13604;52.496;13.456;2022-09-16T16:42:56;3.13;;;1.10;;
25758;SDS011;13604;52.496;13.456;2022-09-16T16:45:21;5.28;;;1.65;;
25758;SDS011;13604;52.496;13.456;2022-09-16T16:47:46;5.80;;;1.73;;
25758;SDS011;13604;52.496;13.456;2022-09-16T16:50:12;7.88;;;1.65;;
25758;SDS011;13604;52.496;13.456;2022-09-16T16:52:37;5.03;;;1.30;;